Time;durP1;ratioP1;P1;durP2;ratioP2;P2;SDS_P1;SDS_P2;PMS_P1;PMS_P2;Temp;Humidity;BMP_temperature;BMP_pressure;BME280_temperature;BME280_humidity;BME280_pressure;Samples;Min_cycle;Max_cycle;Signal;HPM_P1;HPM_P2
2021/11/20 00:01:16;;;;;;;;;;;18.40;70.70;;;;;;5096928;28;20421;-60
2021/11/20 00:03:45;;;;;;;;;;;18.30;70.60;;;;;;5097187;28;20301;-60
2021/11/20 00:06:14;;;;;;;;;;;18.40;70.70;;;;;;5092057;28;19936;-58
2021/11/20 00:08:41;;;;;;;;;;;18.30;70.60;;;;;;5096494;28;19938;-58
2021/11/20 00:11:10;;;;;;;;;;;18.40;70.80;;;;;;5097275;28;19991;-59
2021/11/20 00:13:37;;;;;;;;;;;18.30;70.60;;;;;;5097285;28;20338;-61
2021/11/20 00:16:05;;;;;;;;;;;18.40;70.80;;;;;;5096957;28;19924;-59
2021/11/20 00:18:33;;;;;;;;;;;18.40;70.80;;;;;;5096577;28;20445;-60
2021/11/20 00:21:03;;;;;;;;;;;18.40;70.80;;;;;;5095708;28;19924;-60
2021/11/20 00:23:35;;;;;;;;;;;18.40;70.80;;;;;;5093365;28;20007;-56
2021/11/20 00:26:03;;;;;;;;;;;18.40;70.80;;;;;;5096285;28;19928;-57
2021/11/20 00:29:04;;;;;;;;;;;18.30;70.70;;;;;;5096360;28;19924;-57
2021/11/20 00:31:33;;;;;;;;;;;18.40;70.90;;;;;;5096364;28;19924;-60
2021/11/20 00:34:01;;;;;;;;;;;18.40;70.90;;;;;;5096359;28;20425;-60
2021/11/20 00:36:28;;;;;;;;;;;18.40;70.90;;;;;;5092616;28;19932;-58
2021/11/20 00:38:55;;;;;;;;;;;18.40;70.90;;;;;;5094992;28;19969;-60
2021/11/20 00:41:24;;;;;;;;;;;18.30;70.70;;;;;;5096471;28;19924;-59
2021/11/20 00:43:52;;;;;;;;;;;18.40;71.00;;;;;;5096692;28;19928;-60
2021/11/20 00:46:20;;;;;;;;;;;18.30;70.80;;;;;;5096040;28;19929;-59
2021/11/20 00:48:47;;;;;;;;;;;18.40;70.90;;;;;;5096381;28;19955;-60
2021/11/20 00:51:16;;;;;;;;;;;18.40;71.00;;;;;;5096308;28;19924;-60
2021/11/20 00:53:44;;;;;;;;;;;18.30;70.80;;;;;;5091281;28;19977;-60
2021/11/20 00:56:12;;;;;;;;;;;18.40;71.00;;;;;;5095874;28;19969;-61
2021/11/20 00:58:40;;;;;;;;;;;18.30;70.80;;;;;;5095847;28;20311;-60
2021/11/20 01:01:08;;;;;;;;;;;18.40;71.00;;;;;;5096116;28;20018;-60
2021/11/20 01:03:35;;;;;;;;;;;18.40;71.00;;;;;;5096061;28;19924;-61
2021/11/20 01:06:03;;;;;;;;;;;18.40;71.00;;;;;;5095631;28;19981;-59
2021/11/20 01:08:31;;;;;;;;;;;18.40;71.00;;;;;;5091144;28;20307;-60
2021/11/20 01:11:01;;;;;;;;;;;18.40;71.00;;;;;;5095916;28;19928;-61
2021/11/20 01:13:28;;;;;;;;;;;18.30;70.90;;;;;;5095555;28;19924;-60
2021/11/20 01:15:57;;;;;;;;;;;18.40;71.10;;;;;;5095812;28;20014;-60
2021/11/20 01:18:25;;;;;;;;;;;18.40;71.10;;;;;;5095754;28;19967;-60
2021/11/20 01:20:52;;;;;;;;;;;18.40;71.10;;;;;;5095957;28;19924;-59
2021/11/20 01:23:20;;;;;;;;;;;18.30;71.00;;;;;;5091113;28;19924;-58
2021/11/20 01:25:48;;;;;;;;;;;18.40;71.10;;;;;;5095093;28;19924;-55
2021/11/20 01:28:15;;;;;;;;;;;18.40;71.10;;;;;;5095255;28;19931;-61
2021/11/20 01:30:42;;;;;;;;;;;18.40;71.10;;;;;;5077614;28;19973;-60
2021/11/20 01:33:10;;;;;;;;;;;18.30;71.00;;;;;;5095150;28;19931;-58
2021/11/20 01:35:37;;;;;;;;;;;18.40;71.10;;;;;;5096272;28;19928;-60
2021/11/20 01:38:04;;;;;;;;;;;18.40;71.20;;;;;;5091288;28;19932;-59
2021/11/20 01:40:33;;;;;;;;;;;18.30;71.00;;;;;;5094261;28;19924;-61
2021/11/20 01:43:01;;;;;;;;;;;18.40;71.20;;;;;;5095200;28;20017;-60
2021/11/20 01:45:33;;;;;;;;;;;18.40;71.20;;;;;;5095175;28;19924;-61
2021/11/20 01:48:03;;;;;;;;;;;18.30;71.10;;;;;;5094933;28;20375;-58
2021/11/20 01:50:31;;;;;;;;;;;18.30;71.10;;;;;;5094820;28;19928;-59
2021/11/20 01:53:25;;;;;;;;;;;18.40;71.20;;;;;;5091367;28;19997;-61
2021/11/20 01:56:11;;;;;;;;;;;18.30;71.10;;;;;;5091675;28;19969;-60
2021/11/20 01:58:41;;;;;;;;;;;18.30;71.10;;;;;;5095038;28;19974;-60
2021/11/20 02:01:08;;;;;;;;;;;18.30;71.20;;;;;;5094697;28;20382;-60
2021/11/20 02:03:35;;;;;;;;;;;18.40;71.30;;;;;;5094903;28;19931;-60
2021/11/20 02:06:05;;;;;;;;;;;18.30;71.20;;;;;;5094763;28;19969;-61
2021/11/20 02:08:50;;;;;;;;;;;18.30;71.20;;;;;;5091363;28;19977;-60
2021/11/20 02:11:23;;;;;;;;;;;18.40;71.30;;;;;;5095290;28;19924;-60
2021/11/20 02:13:50;;;;;;;;;;;18.40;71.30;;;;;;5094749;28;19998;-61
2021/11/20 02:16:19;;;;;;;;;;;18.30;71.20;;;;;;5094360;28;19931;-61
2021/11/20 02:18:50;;;;;;;;;;;18.40;71.30;;;;;;5094335;28;19969;-61
2021/11/20 02:21:20;;;;;;;;;;;18.30;71.20;;;;;;5094902;28;20275;-59
2021/11/20 02:24:05;;;;;;;;;;;18.40;71.40;;;;;;5081148;28;19924;-61
2021/11/20 02:26:50;;;;;;;;;;;18.40;71.40;;;;;;5073748;28;19924;-59
2021/11/20 02:29:17;;;;;;;;;;;18.40;71.40;;;;;;5073920;28;19924;-59
2021/11/20 02:31:56;;;;;;;;;;;18.40;71.40;;;;;;5074438;28;19924;-60
2021/11/20 02:34:24;;;;;;;;;;;18.40;71.40;;;;;;5074792;28;19925;-61
2021/11/20 02:36:51;;;;;;;;;;;18.30;71.30;;;;;;5074143;28;19925;-58
2021/11/20 02:39:21;;;;;;;;;;;18.30;71.30;;;;;;5086525;28;20403;-60
2021/11/20 02:41:50;;;;;;;;;;;18.30;71.30;;;;;;5094010;28;19924;-60
2021/11/20 02:44:19;;;;;;;;;;;18.30;71.30;;;;;;5093980;28;19974;-53
2021/11/20 02:46:48;;;;;;;;;;;18.30;71.30;;;;;;5094096;28;19924;-61
2021/11/20 02:49:15;;;;;;;;;;;18.30;71.30;;;;;;5093905;28;19924;-58
2021/11/20 02:51:45;;;;;;;;;;;18.30;71.30;;;;;;5094227;28;19924;-59
2021/11/20 02:54:17;;;;;;;;;;;18.40;71.50;;;;;;5091292;28;19924;-60
2021/11/20 02:56:56;;;;;;;;;;;18.30;71.30;;;;;;5093536;28;19946;-61
2021/11/20 02:59:25;;;;;;;;;;;18.30;71.30;;;;;;5093472;28;20213;-61
2021/11/20 03:01:52;;;;;;;;;;;18.40;71.50;;;;;;5093774;28;19924;-58
2021/11/20 03:04:20;;;;;;;;;;;18.40;71.50;;;;;;5094063;28;20327;-57
2021/11/20 03:06:51;;;;;;;;;;;18.40;71.50;;;;;;5093974;28;19946;-60
2021/11/20 03:09:18;;;;;;;;;;;18.30;71.40;;;;;;5074212;28;19924;-58
2021/11/20 03:11:45;;;;;;;;;;;18.40;71.50;;;;;;5093976;28;19932;-60
2021/11/20 03:14:14;;;;;;;;;;;18.40;71.50;;;;;;5093904;28;19925;-61
2021/11/20 03:16:42;;;;;;;;;;;18.40;71.50;;;;;;5093972;28;19925;-60
2021/11/20 03:19:10;;;;;;;;;;;18.30;71.40;;;;;;5093650;28;19977;-61
2021/11/20 03:21:40;;;;;;;;;;;18.30;71.40;;;;;;5093600;28;19924;-61
2021/11/20 03:24:09;;;;;;;;;;;18.40;71.50;;;;;;5090740;28;19928;-59
2021/11/20 03:26:36;;;;;;;;;;;18.40;71.50;;;;;;5093558;28;19973;-59
2021/11/20 03:29:03;;;;;;;;;;;18.40;71.50;;;;;;5076005;28;19933;-60
2021/11/20 03:31:30;;;;;;;;;;;18.40;71.60;;;;;;5093501;28;20441;-60
2021/11/20 03:33:57;;;;;;;;;;;18.40;71.50;;;;;;5093501;28;19924;-60
2021/11/20 03:36:24;;;;;;;;;;;18.40;71.60;;;;;;5075949;28;19924;-59
2021/11/20 03:38:51;;;;;;;;;;;18.40;71.60;;;;;;5091682;28;19953;-61
2021/11/20 03:41:18;;;;;;;;;;;18.40;71.60;;;;;;5093427;28;20395;-61
2021/11/20 03:43:45;;;;;;;;;;;18.40;71.60;;;;;;5093751;28;20338;-60
2021/11/20 03:46:13;;;;;;;;;;;18.40;71.60;;;;;;5093305;28;19977;-61
2021/11/20 03:48:40;;;;;;;;;;;18.30;71.40;;;;;;5093366;28;19981;-60
2021/11/20 03:51:07;;;;;;;;;;;18.40;71.60;;;;;;5093336;28;19928;-59
2021/11/20 03:53:34;;;;;;;;;;;18.40;71.60;;;;;;5089923;28;19924;-60
2021/11/20 03:56:02;;;;;;;;;;;18.30;71.50;;;;;;5072872;28;19925;-59
2021/11/20 03:58:29;;;;;;;;;;;18.40;71.60;;;;;;5073337;28;19924;-61
2021/11/20 04:01:01;;;;;;;;;;;18.40;71.60;;;;;;5055558;28;19924;-61
2021/11/20 04:03:28;;;;;;;;;;;18.40;71.60;;;;;;5073362;28;19946;-59
2021/11/20 04:05:56;;;;;;;;;;;18.40;71.60;;;;;;5076342;28;20388;-61
2021/11/20 04:08:25;;;;;;;;;;;18.40;71.60;;;;;;5076848;28;19929;-59
2021/11/20 04:10:53;;;;;;;;;;;18.40;71.60;;;;;;5076328;28;19924;-60
2021/11/20 04:13:20;;;;;;;;;;;18.30;71.50;;;;;;5076776;28;19924;-60
2021/11/20 04:15:48;;;;;;;;;;;18.30;71.50;;;;;;5058756;28;19924;-59
2021/11/20 04:18:15;;;;;;;;;;;18.40;71.60;;;;;;5076696;28;19975;-60
2021/11/20 04:20:43;;;;;;;;;;;18.40;71.70;;;;;;5076670;28;20265;-60
2021/11/20 04:23:10;;;;;;;;;;;18.40;71.70;;;;;;5076446;28;19925;-58
2021/11/20 04:25:37;;;;;;;;;;;18.40;71.70;;;;;;5075529;28;19925;-60
2021/11/20 04:28:04;;;;;;;;;;;18.40;71.70;;;;;;5076172;28;19929;-59
2021/11/20 04:30:32;;;;;;;;;;;18.40;71.70;;;;;;5076198;28;19924;-58
2021/11/20 04:32:59;;;;;;;;;;;18.40;71.70;;;;;;5076131;28;19970;-59
2021/11/20 04:35:26;;;;;;;;;;;18.40;71.70;;;;;;5076078;28;19925;-60
2021/11/20 04:37:54;;;;;;;;;;;18.40;71.70;;;;;;5076332;28;19929;-61
2021/11/20 04:40:21;;;;;;;;;;;18.40;71.70;;;;;;5075479;28;19924;-60
2021/11/20 04:42:49;;;;;;;;;;;18.30;71.60;;;;;;5075944;28;19925;-59
2021/11/20 04:45:17;;;;;;;;;;;18.40;71.70;;;;;;5075887;28;19931;-58
2021/11/20 04:47:45;;;;;;;;;;;18.30;71.60;;;;;;5075746;28;19932;-61
2021/11/20 04:50:12;;;;;;;;;;;18.40;71.70;;;;;;5075810;28;19970;-60
2021/11/20 04:52:39;;;;;;;;;;;18.40;71.70;;;;;;5075901;28;20265;-60
2021/11/20 04:55:07;;;;;;;;;;;18.40;71.80;;;;;;5075207;28;20015;-56
2021/11/20 04:57:34;;;;;;;;;;;18.40;71.80;;;;;;5075827;28;19924;-60
2021/11/20 05:00:05;;;;;;;;;;;18.30;71.70;;;;;;5075926;28;20342;-57
2021/11/20 05:02:32;;;;;;;;;;;18.30;71.70;;;;;;5075592;28;19928;-60
2021/11/20 05:04:59;;;;;;;;;;;18.30;71.70;;;;;;5075503;28;19924;-59
2021/11/20 05:07:26;;;;;;;;;;;18.40;71.80;;;;;;5075687;28;19925;-60
2021/11/20 05:09:55;;;;;;;;;;;18.40;71.80;;;;;;5075075;28;19925;-61
2021/11/20 05:12:23;;;;;;;;;;;18.30;71.70;;;;;;5058036;28;20334;-60
2021/11/20 05:14:50;;;;;;;;;;;18.40;71.80;;;;;;5075263;28;19978;-58
2021/11/20 05:17:17;;;;;;;;;;;18.30;71.70;;;;;;5075806;28;19932;-60
2021/11/20 05:19:44;;;;;;;;;;;18.40;71.80;;;;;;5075506;28;19928;-60
2021/11/20 05:22:11;;;;;;;;;;;18.30;71.70;;;;;;5075500;28;20268;-61
2021/11/20 05:24:38;;;;;;;;;;;18.30;71.70;;;;;;5074235;28;20295;-59
2021/11/20 05:27:06;;;;;;;;;;;18.30;71.70;;;;;;5075301;28;19924;-59
2021/11/20 05:32:01;;;;;;;;;;;18.30;71.80;;;;;;5074972;28;19925;-60
2021/11/20 05:34:29;;;;;;;;;;;18.40;71.90;;;;;;5074911;28;19925;-60
2021/11/20 05:36:56;;;;;;;;;;;18.40;71.90;;;;;;5075173;28;19987;-61
2021/11/20 05:39:23;;;;;;;;;;;18.30;71.80;;;;;;5074787;28;19979;-59
2021/11/20 05:41:52;;;;;;;;;;;18.40;71.90;;;;;;5074194;28;19924;-59
2021/11/20 05:44:19;;;;;;;;;;;18.30;71.80;;;;;;5075024;28;20293;-60
2021/11/20 05:46:46;;;;;;;;;;;18.30;71.80;;;;;;5074901;28;19990;-60
2021/11/20 05:49:14;;;;;;;;;;;18.30;71.80;;;;;;5074894;28;19967;-59
2021/11/20 05:51:41;;;;;;;;;;;18.40;71.90;;;;;;5056876;28;19924;-61
2021/11/20 05:54:08;;;;;;;;;;;18.30;71.80;;;;;;5074754;28;19928;-59
2021/11/20 05:56:35;;;;;;;;;;;18.30;71.80;;;;;;5073424;28;19966;-60
2021/11/20 05:59:22;;;;;;;;;;;18.40;71.90;;;;;;5074786;28;20369;-59
2021/11/20 06:01:49;;;;;;;;;;;18.30;71.80;;;;;;5074681;28;20295;-59
2021/11/20 06:04:17;;;;;;;;;;;18.30;71.80;;;;;;5056746;28;20014;-59
2021/11/20 06:06:44;;;;;;;;;;;18.30;71.80;;;;;;5074186;28;19928;-60
2021/11/20 06:09:12;;;;;;;;;;;18.40;71.90;;;;;;5074573;28;19924;-61
2021/11/20 06:11:39;;;;;;;;;;;18.30;71.90;;;;;;5073979;28;19924;-59
2021/11/20 06:14:07;;;;;;;;;;;18.40;71.90;;;;;;5074468;28;19924;-59
2021/11/20 06:16:34;;;;;;;;;;;18.40;72.00;;;;;;5074431;28;19928;-60
2021/11/20 06:19:01;;;;;;;;;;;18.40;72.00;;;;;;5074451;28;20322;-59
2021/11/20 06:21:28;;;;;;;;;;;18.30;71.80;;;;;;5074071;28;19978;-59
2021/11/20 06:23:55;;;;;;;;;;;18.30;71.80;;;;;;5073846;28;19924;-61
2021/11/20 06:26:22;;;;;;;;;;;18.30;71.80;;;;;;5073073;28;20334;-59
2021/11/20 06:28:49;;;;;;;;;;;18.40;71.90;;;;;;5074068;28;20062;-60
2021/11/20 06:31:16;;;;;;;;;;;18.30;71.90;;;;;;5056479;28;19970;-56
2021/11/20 06:33:44;;;;;;;;;;;18.40;72.00;;;;;;5073912;28;19982;-61
2021/11/20 06:36:10;;;;;;;;;;;18.40;72.00;;;;;;5074467;28;19950;-61
2021/11/20 06:38:39;;;;;;;;;;;18.40;72.00;;;;;;5074108;28;19977;-60
2021/11/20 06:41:08;;;;;;;;;;;18.40;72.00;;;;;;5073739;28;19925;-60
2021/11/20 06:43:35;;;;;;;;;;;18.40;72.00;;;;;;5073781;28;19925;-60
2021/11/20 06:46:07;;;;;;;;;;;18.40;72.00;;;;;;5073766;28;19928;-59
2021/11/20 06:48:35;;;;;;;;;;;18.40;72.00;;;;;;5073653;28;20445;-61
2021/11/20 06:51:02;;;;;;;;;;;18.40;72.00;;;;;;5073758;28;19924;-57
2021/11/20 06:53:30;;;;;;;;;;;18.40;71.90;;;;;;5074002;28;19978;-60
2021/11/20 06:55:58;;;;;;;;;;;18.40;71.90;;;;;;5072504;28;19974;-59
2021/11/20 07:01:01;;;;;;;;;;;18.40;71.90;;;;;;5073584;28;19934;-61
2021/11/20 07:03:32;;;;;;;;;;;18.40;71.90;;;;;;5073862;28;20355;-59
2021/11/20 07:06:01;;;;;;;;;;;18.40;71.90;;;;;;5073908;28;20296;-60
2021/11/20 07:08:29;;;;;;;;;;;18.40;71.90;;;;;;5073450;28;19974;-61
2021/11/20 07:10:57;;;;;;;;;;;18.40;71.90;;;;;;5073285;28;19948;-60
2021/11/20 07:13:24;;;;;;;;;;;18.40;71.90;;;;;;5073468;28;19932;-60
2021/11/20 07:15:52;;;;;;;;;;;18.40;71.90;;;;;;5073801;28;19924;-60
2021/11/20 07:18:19;;;;;;;;;;;18.40;71.80;;;;;;5073723;28;19924;-59
2021/11/20 07:20:46;;;;;;;;;;;18.40;71.90;;;;;;5073434;28;19924;-61
2021/11/20 07:23:13;;;;;;;;;;;18.40;71.80;;;;;;5073223;28;19974;-59
2021/11/20 07:25:40;;;;;;;;;;;18.40;71.80;;;;;;5072736;28;19924;-59
2021/11/20 07:28:08;;;;;;;;;;;18.40;71.80;;;;;;5073196;28;19978;-61
2021/11/20 07:30:36;;;;;;;;;;;18.40;71.80;;;;;;5073583;28;19925;-59
2021/11/20 07:33:03;;;;;;;;;;;18.40;71.70;;;;;;5073309;28;20379;-58
2021/11/20 07:35:38;;;;;;;;;;;18.40;71.70;;;;;;5073255;28;19929;-61
2021/11/20 07:38:06;;;;;;;;;;;18.40;71.80;;;;;;5073221;28;19995;-56
2021/11/20 07:40:35;;;;;;;;;;;18.40;71.70;;;;;;5059151;28;19928;-59
2021/11/20 07:43:02;;;;;;;;;;;18.40;71.70;;;;;;5075814;28;19924;-61
2021/11/20 07:45:29;;;;;;;;;;;18.40;71.70;;;;;;5076908;28;19925;-56
2021/11/20 07:48:01;;;;;;;;;;;18.40;71.70;;;;;;5076927;28;19924;-60
2021/11/20 07:50:27;;;;;;;;;;;18.40;71.60;;;;;;5076877;28;19924;-57
2021/11/20 07:52:54;;;;;;;;;;;18.50;71.70;;;;;;5076605;28;19928;-60
2021/11/20 07:55:21;;;;;;;;;;;18.50;71.70;;;;;;5059052;28;19924;-59
2021/11/20 07:57:48;;;;;;;;;;;18.50;71.70;;;;;;5076339;28;19924;-61
2021/11/20 08:00:17;;;;;;;;;;;18.50;71.60;;;;;;5076981;28;20273;-59
2021/11/20 08:02:45;;;;;;;;;;;18.50;71.60;;;;;;5076878;28;19928;-59
2021/11/20 08:05:12;;;;;;;;;;;18.50;71.60;;;;;;5076605;28;20471;-59
2021/11/20 08:07:44;;;;;;;;;;;18.50;71.60;;;;;;5076835;28;19931;-59
2021/11/20 08:10:12;;;;;;;;;;;18.50;71.50;;;;;;5058871;28;19929;-59
2021/11/20 08:12:39;;;;;;;;;;;18.60;71.60;;;;;;5075950;28;19924;-59
2021/11/20 08:15:07;;;;;;;;;;;18.50;71.50;;;;;;5076797;28;19924;-61
2021/11/20 08:17:34;;;;;;;;;;;18.60;71.50;;;;;;5076441;28;20371;-60
2021/11/20 08:20:03;;;;;;;;;;;18.60;71.50;;;;;;5076676;28;19970;-59
2021/11/20 08:22:30;;;;;;;;;;;18.50;71.50;;;;;;5076450;28;20292;-59
2021/11/20 08:24:57;;;;;;;;;;;18.60;71.50;;;;;;5076371;28;20372;-61
2021/11/20 08:27:24;;;;;;;;;;;18.60;71.50;;;;;;5075392;28;19924;-60
2021/11/20 08:29:51;;;;;;;;;;;18.60;71.50;;;;;;5076229;28;19924;-60
2021/11/20 08:32:18;;;;;;;;;;;18.60;71.40;;;;;;5076471;28;19924;-59
2021/11/20 08:34:45;;;;;;;;;;;18.60;71.40;;;;;;5076031;28;19964;-61
2021/11/20 08:37:12;;;;;;;;;;;18.60;71.40;;;;;;5076017;28;19932;-60
2021/11/20 08:39:39;;;;;;;;;;;18.60;71.40;;;;;;5076172;28;20355;-59
2021/11/20 08:42:07;;;;;;;;;;;18.60;71.40;;;;;;5074745;28;20015;-59
2021/11/20 08:44:34;;;;;;;;;;;18.60;71.30;;;;;;5076194;28;19989;-59
2021/11/20 08:47:03;;;;;;;;;;;18.60;71.30;;;;;;5075728;28;19924;-61
2021/11/20 08:49:30;;;;;;;;;;;18.60;71.30;;;;;;5075788;28;19986;-57
2021/11/20 08:51:58;;;;;;;;;;;18.60;71.30;;;;;;5057993;28;19928;-58
2021/11/20 08:54:26;;;;;;;;;;;18.60;71.30;;;;;;5058325;28;20288;-56
2021/11/20 08:56:55;;;;;;;;;;;18.60;71.30;;;;;;5074552;28;20005;-59
2021/11/20 08:59:23;;;;;;;;;;;18.60;71.30;;;;;;5075921;28;20304;-60
2021/11/20 09:01:53;;;;;;;;;;;18.60;71.30;;;;;;5075625;28;19924;-59
2021/11/20 09:04:35;;;;;;;;;;;18.60;71.20;;;;;;5075879;28;19925;-59
2021/11/20 09:07:20;;;;;;;;;;;18.60;71.20;;;;;;5075445;28;19924;-62
2021/11/20 09:09:56;;;;;;;;;;;18.60;71.20;;;;;;5075696;28;19931;-59
2021/11/20 09:12:23;;;;;;;;;;;18.70;71.30;;;;;;5078352;28;19977;-61
2021/11/20 09:14:52;;;;;;;;;;;18.70;71.30;;;;;;5095854;28;19923;-59
2021/11/20 09:17:23;;;;;;;;;;;18.60;71.20;;;;;;5095802;28;19924;-59
2021/11/20 09:19:51;;;;;;;;;;;18.60;71.20;;;;;;5095378;28;20402;-59
2021/11/20 09:22:18;;;;;;;;;;;18.60;71.80;;;;;;5095410;28;19924;-60
2021/11/20 09:24:47;;;;;;;;;;;18.70;71.20;;;;;;5095040;28;19924;-61
2021/11/20 09:27:34;;;;;;;;;;;18.70;71.20;;;;;;5092716;28;19924;-61
2021/11/20 09:30:04;;;;;;;;;;;18.70;71.20;;;;;;5095267;28;19924;-61
2021/11/20 09:32:31;;;;;;;;;;;18.70;71.10;;;;;;5095564;28;19931;-61
2021/11/20 09:34:58;;;;;;;;;;;18.70;71.10;;;;;;5077319;28;19977;-60
2021/11/20 09:37:26;;;;;;;;;;;18.70;71.00;;;;;;5095104;28;19928;-60
2021/11/20 09:39:54;;;;;;;;;;;18.70;71.00;;;;;;5095491;28;20042;-57
2021/11/20 09:42:34;;;;;;;;;;;18.70;70.90;;;;;;5074720;28;20291;-61
2021/11/20 09:45:25;;;;;;;;;;;18.70;71.00;;;;;;5095000;28;20022;-59
2021/11/20 09:48:15;;;;;;;;;;;18.70;70.90;;;;;;5087125;28;19931;-61
2021/11/20 09:50:54;;;;;;;;;;;18.70;70.90;;;;;;5094876;28;20306;-59
2021/11/20 09:53:22;;;;;;;;;;;18.70;70.90;;;;;;5094672;28;20362;-60
2021/11/20 09:55:54;;;;;;;;;;;18.70;70.90;;;;;;5094503;28;19928;-57
2021/11/20 09:58:32;;;;;;;;;;;18.70;70.90;;;;;;5093165;28;20291;-60
2021/11/20 10:01:26;;;;;;;;;;;18.70;70.80;;;;;;5094921;28;19931;-58
2021/11/20 10:04:02;;;;;;;;;;;18.70;70.80;;;;;;5092109;28;19965;-60
2021/11/20 10:06:31;;;;;;;;;;;18.70;70.80;;;;;;5094867;28;19924;-61
2021/11/20 10:09:03;;;;;;;;;;;18.70;70.80;;;;;;5094811;28;19927;-60
2021/11/20 10:11:36;;;;;;;;;;;18.70;70.70;;;;;;5095105;28;19947;-60
2021/11/20 10:14:32;;;;;;;;;;;18.70;70.70;;;;;;5079554;28;19970;-60
2021/11/20 10:17:30;;;;;;;;;;;18.70;70.60;;;;;;5012773;28;20324;-60
2021/11/20 10:20:15;;;;;;;;;;;18.70;70.60;;;;;;5012463;28;19930;-60
2021/11/20 10:22:48;;;;;;;;;;;18.70;70.60;;;;;;5012286;28;19925;-60
2021/11/20 10:25:44;;;;;;;;;;;18.70;70.50;;;;;;5012265;28;20401;-59
2021/11/20 10:28:27;;;;;;;;;;;18.70;70.50;;;;;;4975975;28;19957;-61
2021/11/20 10:30:59;;;;;;;;;;;18.70;70.50;;;;;;4992765;28;19972;-61
2021/11/20 10:33:38;;;;;;;;;;;18.70;70.50;;;;;;4992921;28;19932;-59
2021/11/20 10:36:34;;;;;;;;;;;18.70;70.50;;;;;;4992670;28;19969;-60
2021/11/20 10:39:13;;;;;;;;;;;18.70;70.40;;;;;;4934777;29;19950;-60
2021/11/20 10:41:43;;;;;;;;;;;18.70;70.40;;;;;;4934945;29;19933;-58
2021/11/20 10:44:16;;;;;;;;;;;18.70;70.40;;;;;;4922889;29;19927;-59
2021/11/20 10:46:52;;;;;;;;;;;18.80;70.40;;;;;;4915865;29;20357;-59
2021/11/20 10:49:22;;;;;;;;;;;18.80;70.30;;;;;;4915611;29;19975;-58
2021/11/20 10:52:08;;;;;;;;;;;18.80;70.30;;;;;;4915667;29;19971;-59
2021/11/20 10:54:35;;;;;;;;;;;18.80;70.30;;;;;;4933626;29;20426;-60
2021/11/20 10:57:05;;;;;;;;;;;18.80;70.30;;;;;;4934403;29;20058;-60
2021/11/20 10:59:51;;;;;;;;;;;18.80;71.00;;;;;;4934235;29;19927;-59
2021/11/20 11:02:36;;;;;;;;;;;18.70;70.10;;;;;;4934525;29;19981;-58
2021/11/20 11:05:16;;;;;;;;;;;18.80;70.20;;;;;;4973260;28;19998;-59
2021/11/20 11:07:59;;;;;;;;;;;18.80;70.20;;;;;;4992166;28;19948;-61
2021/11/20 11:10:46;;;;;;;;;;;18.80;70.20;;;;;;4992764;28;20305;-57
2021/11/20 11:13:19;;;;;;;;;;;18.80;70.40;;;;;;4991982;28;20012;-61
2021/11/20 11:15:46;;;;;;;;;;;18.80;70.50;;;;;;5034871;28;19932;-60
2021/11/20 11:18:13;;;;;;;;;;;18.70;70.50;;;;;;5077568;28;19972;-61
2021/11/20 11:20:46;;;;;;;;;;;18.70;70.60;;;;;;5078128;28;19929;-61
2021/11/20 11:23:13;;;;;;;;;;;18.70;70.60;;;;;;5077603;28;19924;-60
2021/11/20 11:26:00;;;;;;;;;;;18.70;70.70;;;;;;5077611;28;20095;-59
2021/11/20 11:28:42;;;;;;;;;;;18.70;70.70;;;;;;5075992;28;19982;-61
2021/11/20 11:31:27;;;;;;;;;;;18.70;70.70;;;;;;5077242;28;20020;-60
2021/11/20 11:34:08;;;;;;;;;;;18.70;70.80;;;;;;5059521;28;19924;-61
2021/11/20 11:36:35;;;;;;;;;;;18.70;70.80;;;;;;5077167;28;19977;-60
2021/11/20 11:39:05;;;;;;;;;;;18.70;70.80;;;;;;5077459;28;20265;-59
2021/11/20 11:41:38;;;;;;;;;;;18.70;70.80;;;;;;5077414;28;19929;-61
2021/11/20 11:44:05;;;;;;;;;;;18.70;70.80;;;;;;5076235;28;19954;-60
2021/11/20 11:46:47;;;;;;;;;;;18.70;70.80;;;;;;5059617;28;19924;-59
2021/11/20 11:49:14;;;;;;;;;;;18.70;70.80;;;;;;5077239;28;20363;-60
2021/11/20 11:51:56;;;;;;;;;;;18.70;70.80;;;;;;5077193;28;20338;-59
2021/11/20 11:54:24;;;;;;;;;;;18.70;70.80;;;;;;5076938;28;19964;-60
2021/11/20 11:56:54;;;;;;;;;;;18.70;70.80;;;;;;5076798;28;20015;-60
2021/11/20 11:59:24;;;;;;;;;;;18.70;70.80;;;;;;5075926;28;20410;-59
2021/11/20 12:01:51;;;;;;;;;;;18.70;70.80;;;;;;5076734;28;19978;-61
2021/11/20 12:04:31;;;;;;;;;;;18.70;70.80;;;;;;5076690;28;19924;-56
2021/11/20 12:07:16;;;;;;;;;;;18.70;70.80;;;;;;5076687;28;19931;-60
2021/11/20 12:09:48;;;;;;;;;;;18.70;70.90;;;;;;5076519;28;20380;-60
2021/11/20 12:12:29;;;;;;;;;;;18.70;70.90;;;;;;5076611;28;19925;-59
2021/11/20 12:15:15;;;;;;;;;;;18.70;70.90;;;;;;5076246;28;19935;-59
2021/11/20 12:18:00;;;;;;;;;;;18.70;70.90;;;;;;5076780;28;19924;-62
2021/11/20 12:20:39;;;;;;;;;;;18.70;70.90;;;;;;5076694;28;19986;-57
2021/11/20 12:23:15;;;;;;;;;;;18.70;70.90;;;;;;5076158;28;19928;-60
2021/11/20 12:25:48;;;;;;;;;;;18.70;70.90;;;;;;5075782;28;19946;-58
2021/11/20 12:28:35;;;;;;;;;;;18.70;70.90;;;;;;5076629;28;19931;-60
2021/11/20 12:31:02;;;;;;;;;;;18.70;70.90;;;;;;5075271;28;19970;-58
2021/11/20 12:33:34;;;;;;;;;;;18.70;70.80;;;;;;5076204;28;19955;-61
2021/11/20 12:36:01;;;;;;;;;;;18.70;70.90;;;;;;5076139;28;20364;-59
2021/11/20 12:38:31;;;;;;;;;;;18.80;71.00;;;;;;5076382;28;19924;-59
2021/11/20 12:41:13;;;;;;;;;;;18.70;70.90;;;;;;5076334;28;19970;-61
2021/11/20 12:43:47;;;;;;;;;;;18.80;71.00;;;;;;5076307;28;19925;-61
2021/11/20 12:46:23;;;;;;;;;;;18.80;71.00;;;;;;5075007;28;19928;-59
2021/11/20 12:48:59;;;;;;;;;;;18.70;70.90;;;;;;5075870;28;19924;-62
2021/11/20 12:51:32;;;;;;;;;;;18.80;71.00;;;;;;5075883;28;20027;-59
2021/11/20 12:54:06;;;;;;;;;;;18.80;71.00;;;;;;5075548;28;19974;-59
2021/11/20 12:56:39;;;;;;;;;;;18.70;70.80;;;;;;5075717;28;20273;-57
2021/11/20 12:59:20;;;;;;;;;;;18.70;70.90;;;;;;5076000;28;19931;-60
2021/11/20 13:01:58;;;;;;;;;;;18.80;71.00;;;;;;5056167;28;19954;-60
2021/11/20 13:04:42;;;;;;;;;;;18.70;70.90;;;;;;5055662;28;19925;-60
2021/11/20 13:07:17;;;;;;;;;;;18.80;71.00;;;;;;5056049;28;19932;-61
2021/11/20 13:09:50;;;;;;;;;;;18.80;71.00;;;;;;5070808;28;20417;-59
2021/11/20 13:12:17;;;;;;;;;;;18.70;70.90;;;;;;5055438;28;19982;-59
2021/11/20 13:14:52;;;;;;;;;;;18.70;70.90;;;;;;5057741;28;19979;-59
2021/11/20 13:17:26;;;;;;;;;;;18.80;71.00;;;;;;5075352;28;19968;-61
2021/11/20 13:20:11;;;;;;;;;;;18.70;70.90;;;;;;5075286;28;20417;-61
2021/11/20 13:22:40;;;;;;;;;;;18.70;70.90;;;;;;5075041;28;20442;-61
2021/11/20 13:25:12;;;;;;;;;;;18.70;70.90;;;;;;5074917;28;19928;-59
2021/11/20 13:27:39;;;;;;;;;;;18.70;70.90;;;;;;5075654;28;19924;-60
2021/11/20 13:30:07;;;;;;;;;;;18.70;71.00;;;;;;5074485;28;19936;-61
2021/11/20 13:32:34;;;;;;;;;;;18.70;70.90;;;;;;5075018;28;19970;-59
2021/11/20 13:35:02;;;;;;;;;;;18.80;71.00;;;;;;5075306;28;19964;-59
2021/11/20 13:37:29;;;;;;;;;;;18.80;71.10;;;;;;5074034;28;19924;-60
2021/11/20 13:39:56;;;;;;;;;;;18.70;71.00;;;;;;5075160;28;20308;-60
2021/11/20 13:42:43;;;;;;;;;;;18.70;71.00;;;;;;5060923;28;20003;-61
2021/11/20 13:45:10;;;;;;;;;;;18.80;71.10;;;;;;5074395;28;20336;-61
2021/11/20 13:47:37;;;;;;;;;;;18.70;71.00;;;;;;5074720;28;19932;-60
2021/11/20 13:50:04;;;;;;;;;;;18.70;71.10;;;;;;5074891;28;19924;-60
2021/11/20 13:52:33;;;;;;;;;;;18.70;71.10;;;;;;5074442;28;19925;-61
2021/11/20 13:55:01;;;;;;;;;;;18.70;71.10;;;;;;5074460;28;19925;-61
2021/11/20 13:57:32;;;;;;;;;;;18.70;71.20;;;;;;5053308;28;19932;-59
2021/11/20 14:00:22;;;;;;;;;;;18.70;71.10;;;;;;5053968;28;19925;-61
2021/11/20 14:02:52;;;;;;;;;;;18.70;71.20;;;;;;5056405;28;19931;-60
2021/11/20 14:05:20;;;;;;;;;;;18.70;71.20;;;;;;5086812;28;19925;-59
2021/11/20 14:07:47;;;;;;;;;;;18.70;71.30;;;;;;5086461;28;19929;-62
2021/11/20 14:10:30;;;;;;;;;;;18.70;71.30;;;;;;5054282;28;19996;-60
2021/11/20 14:13:08;;;;;;;;;;;18.70;71.30;;;;;;5054623;28;19932;-60
2021/11/20 14:15:43;;;;;;;;;;;18.70;71.30;;;;;;5054175;28;19931;-61
2021/11/20 14:18:10;;;;;;;;;;;18.70;71.30;;;;;;5054151;28;20383;-59
2021/11/20 14:20:43;;;;;;;;;;;18.70;71.30;;;;;;5054098;28;20003;-61
2021/11/20 14:23:12;;;;;;;;;;;18.70;71.40;;;;;;5054045;28;19968;-61
2021/11/20 14:25:39;;;;;;;;;;;18.70;71.40;;;;;;5054009;28;19925;-61
2021/11/20 14:28:07;;;;;;;;;;;18.70;71.40;;;;;;5053544;28;20426;-61
2021/11/20 14:31:00;;;;;;;;;;;18.70;71.40;;;;;;5052644;28;20408;-61
2021/11/20 14:33:30;;;;;;;;;;;18.70;71.40;;;;;;5054370;28;20453;-59
2021/11/20 14:36:00;;;;;;;;;;;18.70;71.40;;;;;;5053778;28;20355;-61
2021/11/20 14:38:29;;;;;;;;;;;18.60;71.40;;;;;;5053747;28;19929;-60
2021/11/20 14:40:57;;;;;;;;;;;18.70;71.40;;;;;;5053695;28;19925;-59
2021/11/20 14:43:32;;;;;;;;;;;18.60;71.30;;;;;;5053570;28;19975;-58